sensor_id;sensor_type;location;lat;lon;timestamp;P1;durP1;ratioP1;P2;durP2;ratioP2
44486;SDS011;30191;50.908;6.962;2022-11-20T00:00:02;13.68;;;11.38;;
44486;SDS011;30191;50.908;6.962;2022-11-20T00:02:29;12.55;;;10.30;;
44486;SDS011;30191;50.908;6.962;2022-11-20T00:04:54;13.25;;;11.35;;
44486;SDS011;30191;50.908;6.962;2022-11-20T00:07:20;12.25;;;10.68;;
44486;SDS011;30191;50.908;6.962;2022-11-20T00:09:46;11.93;;;10.20;;
44486;SDS011;30191;50.908;6.962;2022-11-20T00:12:11;11.90;;;10.52;;
44486;SDS011;30191;50.908;6.962;2022-11-20T00:14:37;12.48;;;10.43;;
44486;SDS011;30191;50.908;6.962;2022-11-20T00:17:02;12.77;;;11.27;;
44486;SDS011;30191;50.908;6.962;2022-11-20T00:19:28;13.18;;;11.05;;
44486;SDS011;30191;50.908;6.962;2022-11-20T00:21:56;13.57;;;11.18;;
44486;SDS011;30191;50.908;6.962;2022-11-20T00:24:22;14.05;;;11.40;;
44486;SDS011;30191;50.908;6.962;2022-11-20T00:26:48;13.60;;;11.05;;
44486;SDS011;30191;50.908;6.962;2022-11-20T00:29:13;12.02;;;10.20;;
44486;SDS011;30191;50.908;6.962;2022-11-20T00:31:39;12.40;;;10.90;;
44486;SDS011;30191;50.908;6.962;2022-11-20T00:34:08;12.43;;;10.60;;
44486;SDS011;30191;50.908;6.962;2022-11-20T00:36:35;13.57;;;11.18;;
44486;SDS011;30191;50.908;6.962;2022-11-20T00:39:00;13.68;;;11.48;;
44486;SDS011;30191;50.908;6.962;2022-11-20T00:41:27;13.75;;;11.40;;
44486;SDS011;30191;50.908;6.962;2022-11-20T00:43:54;17.67;;;10.93;;
44486;SDS011;30191;50.908;6.962;2022-11-20T00:46:21;13.50;;;10.90;;
44486;SDS011;30191;50.908;6.962;2022-11-20T00:48:48;14.07;;;11.05;;
44486;SDS011;30191;50.908;6.962;2022-11-20T00:51:15;13.73;;;10.85;;
44486;SDS011;30191;50.908;6.962;2022-11-20T00:53:43;13.77;;;11.30;;
44486;SDS011;30191;50.908;6.962;2022-11-20T00:56:11;12.57;;;10.70;;
44486;SDS011;30191;50.908;6.962;2022-11-20T00:58:42;12.68;;;10.35;;
44486;SDS011;30191;50.908;6.962;2022-11-20T01:01:10;12.93;;;11.27;;
44486;SDS011;30191;50.908;6.962;2022-11-20T01:03:39;12.48;;;11.02;;
44486;SDS011;30191;50.908;6.962;2022-11-20T01:06:07;12.07;;;10.77;;
44486;SDS011;30191;50.908;6.962;2022-11-20T01:08:38;12.93;;;10.55;;
44486;SDS011;30191;50.908;6.962;2022-11-20T01:11:09;14.95;;;11.23;;
44486;SDS011;30191;50.908;6.962;2022-11-20T01:13:36;12.52;;;10.85;;
44486;SDS011;30191;50.908;6.962;2022-11-20T01:16:04;13.85;;;10.93;;
44486;SDS011;30191;50.908;6.962;2022-11-20T01:18:29;14.30;;;11.57;;
44486;SDS011;30191;50.908;6.962;2022-11-20T01:20:55;14.27;;;12.07;;
44486;SDS011;30191;50.908;6.962;2022-11-20T01:23:24;12.93;;;11.10;;
44486;SDS011;30191;50.908;6.962;2022-11-20T01:25:50;13.60;;;11.70;;
44486;SDS011;30191;50.908;6.962;2022-11-20T01:28:16;15.70;;;11.48;;
44486;SDS011;30191;50.908;6.962;2022-11-20T01:30:41;16.70;;;11.48;;
44486;SDS011;30191;50.908;6.962;2022-11-20T01:33:07;15.30;;;11.70;;
44486;SDS011;30191;50.908;6.962;2022-11-20T01:35:33;14.50;;;11.70;;
44486;SDS011;30191;50.908;6.962;2022-11-20T01:37:58;14.23;;;11.15;;
44486;SDS011;30191;50.908;6.962;2022-11-20T01:40:24;15.45;;;11.52;;
44486;SDS011;30191;50.908;6.962;2022-11-20T01:42:53;14.00;;;10.90;;
44486;SDS011;30191;50.908;6.962;2022-11-20T01:48:20;13.48;;;11.00;;
44486;SDS011;30191;50.908;6.962;2022-11-20T01:50:48;14.23;;;11.13;;
44486;SDS011;30191;50.908;6.962;2022-11-20T01:53:16;12.00;;;10.63;;
44486;SDS011;30191;50.908;6.962;2022-11-20T01:55:50;13.00;;;11.15;;
44486;SDS011;30191;50.908;6.962;2022-11-20T01:58:18;13.27;;;11.32;;
44486;SDS011;30191;50.908;6.962;2022-11-20T02:00:47;11.30;;;10.10;;
44486;SDS011;30191;50.908;6.962;2022-11-20T02:03:14;13.50;;;10.77;;
44486;SDS011;30191;50.908;6.962;2022-11-20T02:08:27;14.13;;;10.88;;
44486;SDS011;30191;50.908;6.962;2022-11-20T02:10:54;12.85;;;10.93;;
44486;SDS011;30191;50.908;6.962;2022-11-20T02:13:19;13.35;;;10.63;;
44486;SDS011;30191;50.908;6.962;2022-11-20T02:16:03;12.80;;;10.43;;
44486;SDS011;30191;50.908;6.962;2022-11-20T02:18:30;13.25;;;11.38;;
44486;SDS011;30191;50.908;6.962;2022-11-20T02:21:01;12.30;;;10.40;;
44486;SDS011;30191;50.908;6.962;2022-11-20T02:26:30;13.40;;;10.40;;
44486;SDS011;30191;50.908;6.962;2022-11-20T02:28:58;11.80;;;10.25;;
44486;SDS011;30191;50.908;6.962;2022-11-20T02:31:25;11.45;;;10.25;;
44486;SDS011;30191;50.908;6.962;2022-11-20T02:33:54;13.40;;;10.82;;
44486;SDS011;30191;50.908;6.962;2022-11-20T02:36:21;13.13;;;10.57;;
44486;SDS011;30191;50.908;6.962;2022-11-20T02:38:48;12.25;;;10.50;;
44486;SDS011;30191;50.908;6.962;2022-11-20T02:41:15;12.93;;;10.50;;
44486;SDS011;30191;50.908;6.962;2022-11-20T02:43:40;13.77;;;11.13;;
44486;SDS011;30191;50.908;6.962;2022-11-20T02:46:06;13.35;;;11.00;;
44486;SDS011;30191;50.908;6.962;2022-11-20T02:48:33;15.20;;;11.32;;
44486;SDS011;30191;50.908;6.962;2022-11-20T02:50:58;12.95;;;10.70;;
44486;SDS011;30191;50.908;6.962;2022-11-20T02:53:24;13.80;;;11.13;;
44486;SDS011;30191;50.908;6.962;2022-11-20T02:55:50;13.57;;;10.63;;
44486;SDS011;30191;50.908;6.962;2022-11-20T02:58:15;13.93;;;11.07;;
44486;SDS011;30191;50.908;6.962;2022-11-20T03:00:41;13.43;;;11.07;;
44486;SDS011;30191;50.908;6.962;2022-11-20T03:03:07;11.35;;;10.02;;
44486;SDS011;30191;50.908;6.962;2022-11-20T03:05:32;12.38;;;10.57;;
44486;SDS011;30191;50.908;6.962;2022-11-20T03:07:58;12.07;;;10.63;;
44486;SDS011;30191;50.908;6.962;2022-11-20T03:10:24;14.45;;;11.45;;
44486;SDS011;30191;50.908;6.962;2022-11-20T03:12:55;17.20;;;11.00;;
44486;SDS011;30191;50.908;6.962;2022-11-20T03:15:25;13.70;;;11.15;;
44486;SDS011;30191;50.908;6.962;2022-11-20T03:17:53;13.00;;;10.02;;
44486;SDS011;30191;50.908;6.962;2022-11-20T03:20:20;12.60;;;10.55;;
44486;SDS011;30191;50.908;6.962;2022-11-20T03:22:46;11.07;;;9.93;;
44486;SDS011;30191;50.908;6.962;2022-11-20T03:25:11;12.82;;;10.95;;
44486;SDS011;30191;50.908;6.962;2022-11-20T03:27:37;12.55;;;10.25;;
44486;SDS011;30191;50.908;6.962;2022-11-20T03:30:03;12.32;;;10.35;;
44486;SDS011;30191;50.908;6.962;2022-11-20T03:32:30;12.48;;;10.52;;
44486;SDS011;30191;50.908;6.962;2022-11-20T03:34:56;11.68;;;10.43;;
44486;SDS011;30191;50.908;6.962;2022-11-20T03:37:22;12.00;;;10.52;;
44486;SDS011;30191;50.908;6.962;2022-11-20T03:39:47;17.00;;;11.38;;
44486;SDS011;30191;50.908;6.962;2022-11-20T03:42:13;12.13;;;10.52;;
44486;SDS011;30191;50.908;6.962;2022-11-20T03:44:57;12.65;;;10.45;;
44486;SDS011;30191;50.908;6.962;2022-11-20T03:47:23;12.90;;;11.18;;
44486;SDS011;30191;50.908;6.962;2022-11-20T03:49:48;13.25;;;10.45;;
44486;SDS011;30191;50.908;6.962;2022-11-20T03:52:14;13.18;;;11.05;;
44486;SDS011;30191;50.908;6.962;2022-11-20T03:54:40;14.73;;;11.55;;
44486;SDS011;30191;50.908;6.962;2022-11-20T03:57:05;13.65;;;11.02;;
44486;SDS011;30191;50.908;6.962;2022-11-20T03:59:31;13.00;;;10.73;;
44486;SDS011;30191;50.908;6.962;2022-11-20T04:01:56;14.15;;;10.98;;
44486;SDS011;30191;50.908;6.962;2022-11-20T04:04:22;14.05;;;11.35;;
44486;SDS011;30191;50.908;6.962;2022-11-20T04:06:48;14.00;;;11.77;;
44486;SDS011;30191;50.908;6.962;2022-11-20T04:09:13;14.70;;;11.02;;
44486;SDS011;30191;50.908;6.962;2022-11-20T04:11:40;13.48;;;11.32;;
44486;SDS011;30191;50.908;6.962;2022-11-20T04:14:06;14.48;;;10.90;;
44486;SDS011;30191;50.908;6.962;2022-11-20T04:16:38;14.63;;;10.90;;
44486;SDS011;30191;50.908;6.962;2022-11-20T04:19:05;12.45;;;10.57;;
44486;SDS011;30191;50.908;6.962;2022-11-20T04:21:34;12.77;;;11.15;;
44486;SDS011;30191;50.908;6.962;2022-11-20T04:23:59;13.73;;;11.57;;
44486;SDS011;30191;50.908;6.962;2022-11-20T04:26:26;13.80;;;11.55;;
44486;SDS011;30191;50.908;6.962;2022-11-20T04:28:53;15.68;;;11.70;;
44486;SDS011;30191;50.908;6.962;2022-11-20T04:31:20;14.85;;;11.80;;
44486;SDS011;30191;50.908;6.962;2022-11-20T04:33:48;15.32;;;11.65;;
44486;SDS011;30191;50.908;6.962;2022-11-20T04:36:24;14.93;;;12.20;;
44486;SDS011;30191;50.908;6.962;2022-11-20T04:38:51;14.73;;;11.50;;
44486;SDS011;30191;50.908;6.962;2022-11-20T04:41:20;15.43;;;11.77;;
44486;SDS011;30191;50.908;6.962;2022-11-20T04:43:47;13.45;;;11.38;;
44486;SDS011;30191;50.908;6.962;2022-11-20T04:46:27;16.13;;;12.52;;
44486;SDS011;30191;50.908;6.962;2022-11-20T04:48:52;15.18;;;12.43;;
44486;SDS011;30191;50.908;6.962;2022-11-20T04:51:18;16.30;;;12.43;;
44486;SDS011;30191;50.908;6.962;2022-11-20T04:53:44;17.45;;;12.88;;
44486;SDS011;30191;50.908;6.962;2022-11-20T04:56:10;16.02;;;12.75;;
44486;SDS011;30191;50.908;6.962;2022-11-20T04:58:37;17.48;;;12.88;;
44486;SDS011;30191;50.908;6.962;2022-11-20T05:01:03;16.55;;;12.95;;
44486;SDS011;30191;50.908;6.962;2022-11-20T05:03:31;17.90;;;13.90;;
44486;SDS011;30191;50.908;6.962;2022-11-20T05:05:59;17.27;;;13.23;;
44486;SDS011;30191;50.908;6.962;2022-11-20T05:08:26;20.67;;;15.23;;
44486;SDS011;30191;50.908;6.962;2022-11-20T05:10:52;17.45;;;14.07;;
44486;SDS011;30191;50.908;6.962;2022-11-20T05:13:17;20.42;;;14.48;;
44486;SDS011;30191;50.908;6.962;2022-11-20T05:15:43;19.58;;;14.95;;
44486;SDS011;30191;50.908;6.962;2022-11-20T05:18:09;19.70;;;15.20;;
44486;SDS011;30191;50.908;6.962;2022-11-20T05:20:34;21.33;;;15.95;;
44486;SDS011;30191;50.908;6.962;2022-11-20T05:23:01;23.63;;;17.23;;
44486;SDS011;30191;50.908;6.962;2022-11-20T05:25:27;21.90;;;16.23;;
44486;SDS011;30191;50.908;6.962;2022-11-20T05:27:52;24.73;;;16.52;;
44486;SDS011;30191;50.908;6.962;2022-11-20T05:30:18;23.52;;;16.70;;
44486;SDS011;30191;50.908;6.962;2022-11-20T05:32:44;20.75;;;16.02;;
44486;SDS011;30191;50.908;6.962;2022-11-20T05:35:10;21.80;;;16.02;;
44486;SDS011;30191;50.908;6.962;2022-11-20T05:37:35;20.98;;;16.30;;
44486;SDS011;30191;50.908;6.962;2022-11-20T05:40:01;22.33;;;16.60;;
44486;SDS011;30191;50.908;6.962;2022-11-20T05:42:29;22.15;;;17.08;;
44486;SDS011;30191;50.908;6.962;2022-11-20T05:44:59;20.90;;;16.17;;
44486;SDS011;30191;50.908;6.962;2022-11-20T05:47:26;20.20;;;15.65;;
44486;SDS011;30191;50.908;6.962;2022-11-20T05:49:53;22.70;;;16.50;;
44486;SDS011;30191;50.908;6.962;2022-11-20T05:52:19;21.25;;;16.35;;
44486;SDS011;30191;50.908;6.962;2022-11-20T05:54:45;23.60;;;16.88;;
44486;SDS011;30191;50.908;6.962;2022-11-20T05:57:11;21.63;;;15.38;;
44486;SDS011;30191;50.908;6.962;2022-11-20T05:59:36;22.15;;;16.25;;
44486;SDS011;30191;50.908;6.962;2022-11-20T06:02:02;22.23;;;16.30;;
44486;SDS011;30191;50.908;6.962;2022-11-20T06:04:27;22.60;;;16.38;;
44486;SDS011;30191;50.908;6.962;2022-11-20T06:06:53;21.55;;;16.50;;
44486;SDS011;30191;50.908;6.962;2022-11-20T06:09:19;22.73;;;16.80;;
44486;SDS011;30191;50.908;6.962;2022-11-20T06:11:44;22.08;;;17.00;;
44486;SDS011;30191;50.908;6.962;2022-11-20T06:14:10;21.25;;;16.10;;
44486;SDS011;30191;50.908;6.962;2022-11-20T06:16:36;21.08;;;16.65;;
44486;SDS011;30191;50.908;6.962;2022-11-20T06:19:02;28.00;;;18.17;;
44486;SDS011;30191;50.908;6.962;2022-11-20T06:21:28;24.00;;;17.83;;
44486;SDS011;30191;50.908;6.962;2022-11-20T06:23:53;24.70;;;17.55;;
44486;SDS011;30191;50.908;6.962;2022-11-20T06:26:20;22.88;;;16.52;;
44486;SDS011;30191;50.908;6.962;2022-11-20T06:28:47;20.38;;;15.82;;
44486;SDS011;30191;50.908;6.962;2022-11-20T06:31:14;16.58;;;13.45;;
44486;SDS011;30191;50.908;6.962;2022-11-20T06:33:42;16.13;;;13.15;;
44486;SDS011;30191;50.908;6.962;2022-11-20T06:36:08;18.13;;;13.85;;
44486;SDS011;30191;50.908;6.962;2022-11-20T06:38:35;17.63;;;13.20;;
44486;SDS011;30191;50.908;6.962;2022-11-20T06:41:02;17.00;;;12.82;;
44486;SDS011;30191;50.908;6.962;2022-11-20T06:43:29;16.10;;;12.80;;
44486;SDS011;30191;50.908;6.962;2022-11-20T06:45:55;16.15;;;12.57;;
44486;SDS011;30191;50.908;6.962;2022-11-20T06:48:22;16.90;;;12.95;;
44486;SDS011;30191;50.908;6.962;2022-11-20T06:50:48;15.82;;;13.10;;
44486;SDS011;30191;50.908;6.962;2022-11-20T06:53:14;15.35;;;13.00;;
44486;SDS011;30191;50.908;6.962;2022-11-20T06:55:44;18.52;;;12.57;;
44486;SDS011;30191;50.908;6.962;2022-11-20T06:58:11;15.88;;;13.02;;
44486;SDS011;30191;50.908;6.962;2022-11-20T07:00:38;18.02;;;13.15;;
44486;SDS011;30191;50.908;6.962;2022-11-20T07:03:04;16.00;;;13.20;;
44486;SDS011;30191;50.908;6.962;2022-11-20T07:05:31;15.30;;;12.20;;
44486;SDS011;30191;50.908;6.962;2022-11-20T07:07:57;16.38;;;13.38;;
44486;SDS011;30191;50.908;6.962;2022-11-20T07:10:22;17.60;;;13.00;;
44486;SDS011;30191;50.908;6.962;2022-11-20T07:12:49;16.17;;;13.43;;
44486;SDS011;30191;50.908;6.962;2022-11-20T07:15:16;15.77;;;12.25;;
44486;SDS011;30191;50.908;6.962;2022-11-20T07:17:42;17.50;;;12.95;;
44486;SDS011;30191;50.908;6.962;2022-11-20T07:20:08;17.10;;;12.88;;
44486;SDS011;30191;50.908;6.962;2022-11-20T07:22:34;18.75;;;13.77;;
44486;SDS011;30191;50.908;6.962;2022-11-20T07:25:00;16.95;;;12.57;;
44486;SDS011;30191;50.908;6.962;2022-11-20T07:27:26;15.60;;;13.40;;
44486;SDS011;30191;50.908;6.962;2022-11-20T07:29:52;15.77;;;13.10;;
44486;SDS011;30191;50.908;6.962;2022-11-20T07:32:18;16.90;;;12.80;;
44486;SDS011;30191;50.908;6.962;2022-11-20T07:34:44;15.60;;;12.50;;
44486;SDS011;30191;50.908;6.962;2022-11-20T07:37:09;18.13;;;13.85;;
44486;SDS011;30191;50.908;6.962;2022-11-20T07:39:35;21.30;;;13.52;;
44486;SDS011;30191;50.908;6.962;2022-11-20T07:42:00;17.05;;;12.77;;
44486;SDS011;30191;50.908;6.962;2022-11-20T07:44:26;16.23;;;13.25;;
44486;SDS011;30191;50.908;6.962;2022-11-20T07:46:52;17.83;;;14.05;;
44486;SDS011;30191;50.908;6.962;2022-11-20T07:49:17;15.55;;;13.30;;
44486;SDS011;30191;50.908;6.962;2022-11-20T07:51:43;16.83;;;13.70;;
44486;SDS011;30191;50.908;6.962;2022-11-20T07:54:09;17.20;;;14.25;;
44486;SDS011;30191;50.908;6.962;2022-11-20T07:56:34;19.08;;;14.20;;
44486;SDS011;30191;50.908;6.962;2022-11-20T07:59:00;18.25;;;13.45;;
44486;SDS011;30191;50.908;6.962;2022-11-20T08:01:25;17.58;;;13.35;;
44486;SDS011;30191;50.908;6.962;2022-11-20T08:03:51;13.93;;;12.13;;
44486;SDS011;30191;50.908;6.962;2022-11-20T08:06:17;18.05;;;13.75;;
44486;SDS011;30191;50.908;6.962;2022-11-20T08:08:44;18.60;;;13.90;;
44486;SDS011;30191;50.908;6.962;2022-11-20T08:11:10;18.05;;;13.52;;
44486;SDS011;30191;50.908;6.962;2022-11-20T08:13:54;18.15;;;13.48;;
44486;SDS011;30191;50.908;6.962;2022-11-20T08:16:41;18.67;;;13.98;;
44486;SDS011;30191;50.908;6.962;2022-11-20T08:19:09;16.48;;;13.85;;
44486;SDS011;30191;50.908;6.962;2022-11-20T08:21:34;19.17;;;13.80;;
44486;SDS011;30191;50.908;6.962;2022-11-20T08:24:00;17.27;;;13.27;;
44486;SDS011;30191;50.908;6.962;2022-11-20T08:26:26;17.00;;;13.55;;
44486;SDS011;30191;50.908;6.962;2022-11-20T08:28:55;18.17;;;13.95;;
44486;SDS011;30191;50.908;6.962;2022-11-20T08:31:22;18.70;;;14.23;;
44486;SDS011;30191;50.908;6.962;2022-11-20T08:33:48;18.17;;;14.63;;
44486;SDS011;30191;50.908;6.962;2022-11-20T08:36:14;20.90;;;15.50;;
44486;SDS011;30191;50.908;6.962;2022-11-20T08:38:40;21.05;;;15.60;;
44486;SDS011;30191;50.908;6.962;2022-11-20T08:41:05;18.42;;;15.20;;
44486;SDS011;30191;50.908;6.962;2022-11-20T08:43:51;19.17;;;14.45;;
44486;SDS011;30191;50.908;6.962;2022-11-20T08:46:20;19.98;;;14.75;;
44486;SDS011;30191;50.908;6.962;2022-11-20T08:48:46;18.30;;;14.43;;
44486;SDS011;30191;50.908;6.962;2022-11-20T08:51:12;20.73;;;15.85;;
44486;SDS011;30191;50.908;6.962;2022-11-20T08:53:39;19.50;;;14.60;;
44486;SDS011;30191;50.908;6.962;2022-11-20T08:56:05;19.13;;;14.35;;
44486;SDS011;30191;50.908;6.962;2022-11-20T08:58:31;18.45;;;14.65;;
44486;SDS011;30191;50.908;6.962;2022-11-20T09:00:57;18.88;;;15.25;;
44486;SDS011;30191;50.908;6.962;2022-11-20T09:03:22;19.75;;;14.90;;
44486;SDS011;30191;50.908;6.962;2022-11-20T09:05:48;21.98;;;15.68;;
44486;SDS011;30191;50.908;6.962;2022-11-20T09:08:14;19.23;;;14.85;;
44486;SDS011;30191;50.908;6.962;2022-11-20T09:10:40;20.58;;;15.65;;
44486;SDS011;30191;50.908;6.962;2022-11-20T09:13:05;19.50;;;15.15;;
44486;SDS011;30191;50.908;6.962;2022-11-20T09:15:31;19.25;;;14.80;;
44486;SDS011;30191;50.908;6.962;2022-11-20T09:18:01;18.50;;;14.13;;
44486;SDS011;30191;50.908;6.962;2022-11-20T09:20:27;18.50;;;13.95;;
44486;SDS011;30191;50.908;6.962;2022-11-20T09:22:54;19.83;;;14.55;;
44486;SDS011;30191;50.908;6.962;2022-11-20T09:25:20;19.50;;;14.63;;
44486;SDS011;30191;50.908;6.962;2022-11-20T09:27:46;18.05;;;14.77;;
44486;SDS011;30191;50.908;6.962;2022-11-20T09:30:13;19.17;;;14.85;;
44486;SDS011;30191;50.908;6.962;2022-11-20T09:32:39;19.38;;;14.25;;
44486;SDS011;30191;50.908;6.962;2022-11-20T09:35:05;19.17;;;14.90;;
44486;SDS011;30191;50.908;6.962;2022-11-20T09:37:31;20.20;;;15.23;;
44486;SDS011;30191;50.908;6.962;2022-11-20T09:39:57;19.25;;;14.63;;
44486;SDS011;30191;50.908;6.962;2022-11-20T09:56:38;22.88;;;15.93;;
44486;SDS011;30191;50.908;6.962;2022-11-20T09:59:07;21.13;;;15.65;;
44486;SDS011;30191;50.908;6.962;2022-11-20T10:01:43;21.73;;;15.93;;
44486;SDS011;30191;50.908;6.962;2022-11-20T10:04:16;21.90;;;15.50;;
44486;SDS011;30191;50.908;6.962;2022-11-20T10:09:34;21.55;;;16.27;;
44486;SDS011;30191;50.908;6.962;2022-11-20T10:12:11;22.38;;;16.40;;
44486;SDS011;30191;50.908;6.962;2022-11-20T10:23:21;22.70;;;17.07;;
44486;SDS011;30191;50.908;6.962;2022-11-20T10:29:16;21.55;;;16.13;;
44486;SDS011;30191;50.908;6.962;2022-11-20T10:31:45;23.02;;;17.33;;
44486;SDS011;30191;50.908;6.962;2022-11-20T10:36:59;23.17;;;17.10;;
44486;SDS011;30191;50.908;6.962;2022-11-20T10:39:35;21.38;;;17.00;;
44486;SDS011;30191;50.908;6.962;2022-11-20T10:42:02;22.20;;;17.17;;
44486;SDS011;30191;50.908;6.962;2022-11-20T10:44:32;20.98;;;16.60;;
44486;SDS011;30191;50.908;6.962;2022-11-20T10:47:18;23.58;;;17.88;;
44486;SDS011;30191;50.908;6.962;2022-11-20T10:49:45;23.33;;;17.52;;
44486;SDS011;30191;50.908;6.962;2022-11-20T10:52:21;21.73;;;16.90;;
44486;SDS011;30191;50.908;6.962;2022-11-20T10:55:18;22.42;;;16.40;;
44486;SDS011;30191;50.908;6.962;2022-11-20T10:58:00;23.02;;;16.85;;
44486;SDS011;30191;50.908;6.962;2022-11-20T11:00:34;23.67;;;17.48;;
44486;SDS011;30191;50.908;6.962;2022-11-20T11:02:59;22.80;;;17.13;;
44486;SDS011;30191;50.908;6.962;2022-11-20T11:08:02;25.58;;;17.67;;
44486;SDS011;30191;50.908;6.962;2022-11-20T11:10:44;22.58;;;17.35;;
44486;SDS011;30191;50.908;6.962;2022-11-20T11:13:27;25.83;;;17.67;;
44486;SDS011;30191;50.908;6.962;2022-11-20T11:15:54;24.55;;;16.92;;
44486;SDS011;30191;50.908;6.962;2022-11-20T11:18:27;21.23;;;17.00;;
44486;SDS011;30191;50.908;6.962;2022-11-20T11:20:58;21.88;;;16.35;;
44486;SDS011;30191;50.908;6.962;2022-11-20T11:23:37;24.45;;;18.10;;
44486;SDS011;30191;50.908;6.962;2022-11-20T11:26:20;21.95;;;16.85;;
44486;SDS011;30191;50.908;6.962;2022-11-20T11:29:00;22.08;;;16.00;;
44486;SDS011;30191;50.908;6.962;2022-11-20T11:31:33;22.10;;;16.23;;
44486;SDS011;30191;50.908;6.962;2022-11-20T11:34:33;24.65;;;17.63;;
44486;SDS011;30191;50.908;6.962;2022-11-20T11:39:19;22.17;;;16.25;;
44486;SDS011;30191;50.908;6.962;2022-11-20T11:41:46;25.77;;;18.60;;
44486;SDS011;30191;50.908;6.962;2022-11-20T11:44:22;24.67;;;17.08;;
44486;SDS011;30191;50.908;6.962;2022-11-20T11:47:19;25.15;;;16.55;;
44486;SDS011;30191;50.908;6.962;2022-11-20T11:55:14;22.67;;;16.73;;
44486;SDS011;30191;50.908;6.962;2022-11-20T11:57:55;23.75;;;16.23;;
44486;SDS011;30191;50.908;6.962;2022-11-20T12:00:36;23.30;;;16.23;;
44486;SDS011;30191;50.908;6.962;2022-11-20T12:03:19;24.70;;;16.63;;
44486;SDS011;30191;50.908;6.962;2022-11-20T12:06:06;26.55;;;17.17;;
44486;SDS011;30191;50.908;6.962;2022-11-20T12:08:48;21.13;;;16.25;;
44486;SDS011;30191;50.908;6.962;2022-11-20T12:11:38;24.40;;;16.52;;
44486;SDS011;30191;50.908;6.962;2022-11-20T12:14:18;21.65;;;16.73;;
44486;SDS011;30191;50.908;6.962;2022-11-20T12:17:04;22.20;;;15.82;;
44486;SDS011;30191;50.908;6.962;2022-11-20T12:19:31;22.08;;;16.35;;
44486;SDS011;30191;50.908;6.962;2022-11-20T12:35:51;20.73;;;15.38;;
44486;SDS011;30191;50.908;6.962;2022-11-20T12:55:50;23.30;;;15.52;;
44486;SDS011;30191;50.908;6.962;2022-11-20T12:58:44;21.20;;;15.00;;
44486;SDS011;30191;50.908;6.962;2022-11-20T13:01:50;21.77;;;16.00;;
44486;SDS011;30191;50.908;6.962;2022-11-20T13:04:29;23.42;;;16.02;;
44486;SDS011;30191;50.908;6.962;2022-11-20T13:07:00;23.73;;;15.38;;
44486;SDS011;30191;50.908;6.962;2022-11-20T13:09:28;20.63;;;15.18;;
44486;SDS011;30191;50.908;6.962;2022-11-20T13:12:09;23.25;;;16.40;;
44486;SDS011;30191;50.908;6.962;2022-11-20T13:19:36;20.00;;;15.05;;
44486;SDS011;30191;50.908;6.962;2022-11-20T13:22:02;21.85;;;16.00;;
44486;SDS011;30191;50.908;6.962;2022-11-20T13:24:29;21.90;;;15.75;;
44486;SDS011;30191;50.908;6.962;2022-11-20T13:27:16;19.20;;;15.10;;
44486;SDS011;30191;50.908;6.962;2022-11-20T13:29:45;20.83;;;15.23;;
44486;SDS011;30191;50.908;6.962;2022-11-20T13:32:24;20.27;;;15.25;;
44486;SDS011;30191;50.908;6.962;2022-11-20T13:34:56;21.75;;;15.23;;
44486;SDS011;30191;50.908;6.962;2022-11-20T13:37:34;23.70;;;16.35;;
44486;SDS011;30191;50.908;6.962;2022-11-20T13:40:05;20.20;;;15.75;;
44486;SDS011;30191;50.908;6.962;2022-11-20T13:42:35;21.35;;;15.88;;
44486;SDS011;30191;50.908;6.962;2022-11-20T13:45:28;22.55;;;15.85;;
44486;SDS011;30191;50.908;6.962;2022-11-20T13:47:55;22.55;;;16.35;;
44486;SDS011;30191;50.908;6.962;2022-11-20T13:53:16;23.58;;;17.23;;
44486;SDS011;30191;50.908;6.962;2022-11-20T13:56:05;21.55;;;16.70;;
44486;SDS011;30191;50.908;6.962;2022-11-20T14:01:19;21.95;;;16.17;;
44486;SDS011;30191;50.908;6.962;2022-11-20T14:03:47;22.75;;;15.68;;
44486;SDS011;30191;50.908;6.962;2022-11-20T14:08:56;21.65;;;16.25;;
44486;SDS011;30191;50.908;6.962;2022-11-20T14:11:27;20.77;;;16.35;;
44486;SDS011;30191;50.908;6.962;2022-11-20T14:14:04;21.15;;;15.65;;
44486;SDS011;30191;50.908;6.962;2022-11-20T14:16:33;22.50;;;16.13;;
44486;SDS011;30191;50.908;6.962;2022-11-20T14:21:44;22.48;;;15.73;;
44486;SDS011;30191;50.908;6.962;2022-11-20T14:24:14;21.17;;;15.25;;
44486;SDS011;30191;50.908;6.962;2022-11-20T14:26:44;23.88;;;16.10;;
44486;SDS011;30191;50.908;6.962;2022-11-20T14:29:24;20.88;;;14.95;;
44486;SDS011;30191;50.908;6.962;2022-11-20T14:31:54;22.95;;;15.23;;
44486;SDS011;30191;50.908;6.962;2022-11-20T14:34:22;20.73;;;15.00;;
44486;SDS011;30191;50.908;6.962;2022-11-20T14:36:52;23.25;;;16.15;;
44486;SDS011;30191;50.908;6.962;2022-11-20T14:39:22;21.48;;;15.27;;
44486;SDS011;30191;50.908;6.962;2022-11-20T14:41:54;20.58;;;14.90;;
44486;SDS011;30191;50.908;6.962;2022-11-20T14:44:20;21.27;;;15.57;;
44486;SDS011;30191;50.908;6.962;2022-11-20T14:46:51;22.10;;;15.77;;
44486;SDS011;30191;50.908;6.962;2022-11-20T14:49:17;20.33;;;15.10;;
44486;SDS011;30191;50.908;6.962;2022-11-20T14:51:43;19.95;;;14.48;;
44486;SDS011;30191;50.908;6.962;2022-11-20T14:54:12;21.30;;;14.50;;
44486;SDS011;30191;50.908;6.962;2022-11-20T14:56:39;20.63;;;15.10;;
44486;SDS011;30191;50.908;6.962;2022-11-20T14:59:05;19.52;;;14.30;;
44486;SDS011;30191;50.908;6.962;2022-11-20T15:01:32;19.80;;;13.68;;
44486;SDS011;30191;50.908;6.962;2022-11-20T15:04:05;19.35;;;14.52;;
44486;SDS011;30191;50.908;6.962;2022-11-20T15:06:34;19.85;;;14.65;;
44486;SDS011;30191;50.908;6.962;2022-11-20T15:09:02;19.92;;;14.40;;
44486;SDS011;30191;50.908;6.962;2022-11-20T15:11:29;21.17;;;14.82;;
44486;SDS011;30191;50.908;6.962;2022-11-20T15:13:57;20.55;;;15.85;;
44486;SDS011;30191;50.908;6.962;2022-11-20T15:16:28;20.02;;;14.70;;
44486;SDS011;30191;50.908;6.962;2022-11-20T15:18:53;22.70;;;15.98;;
44486;SDS011;30191;50.908;6.962;2022-11-20T15:21:20;24.23;;;15.05;;
44486;SDS011;30191;50.908;6.962;2022-11-20T15:23:46;19.63;;;14.82;;
44486;SDS011;30191;50.908;6.962;2022-11-20T15:26:12;20.85;;;14.48;;
44486;SDS011;30191;50.908;6.962;2022-11-20T15:28:43;20.27;;;14.73;;
44486;SDS011;30191;50.908;6.962;2022-11-20T15:31:12;18.73;;;14.65;;
44486;SDS011;30191;50.908;6.962;2022-11-20T15:33:40;22.05;;;14.70;;
44486;SDS011;30191;50.908;6.962;2022-11-20T15:36:07;19.17;;;14.40;;
44486;SDS011;30191;50.908;6.962;2022-11-20T15:38:33;20.33;;;15.00;;
44486;SDS011;30191;50.908;6.962;2022-11-20T15:40:59;19.58;;;14.82;;
44486;SDS011;30191;50.908;6.962;2022-11-20T15:43:24;21.10;;;15.77;;
44486;SDS011;30191;50.908;6.962;2022-11-20T15:45:51;22.80;;;15.15;;
44486;SDS011;30191;50.908;6.962;2022-11-20T15:48:38;22.85;;;15.30;;
44486;SDS011;30191;50.908;6.962;2022-11-20T15:53:39;23.67;;;15.10;;
44486;SDS011;30191;50.908;6.962;2022-11-20T15:56:05;22.30;;;14.35;;
44486;SDS011;30191;50.908;6.962;2022-11-20T15:58:34;24.08;;;14.65;;
44486;SDS011;30191;50.908;6.962;2022-11-20T16:00:59;19.80;;;14.18;;
44486;SDS011;30191;50.908;6.962;2022-11-20T16:03:25;19.70;;;13.73;;
44486;SDS011;30191;50.908;6.962;2022-11-20T16:05:51;21.85;;;14.35;;
44486;SDS011;30191;50.908;6.962;2022-11-20T16:08:16;17.77;;;12.93;;
44486;SDS011;30191;50.908;6.962;2022-11-20T16:10:42;18.92;;;13.25;;